sensor_id;sensor_type;location;lat;lon;timestamp;P1;durP1;ratioP1;P2;durP2;ratioP2
73980;SDS011;62348;51.412;5.436;2023-10-09T00:01:39;15.98;;;9.98;;
73980;SDS011;62348;51.412;5.436;2023-10-09T00:04:09;16.02;;;10.60;;
73980;SDS011;62348;51.412;5.436;2023-10-09T00:06:36;16.58;;;10.68;;
73980;SDS011;62348;51.412;5.436;2023-10-09T00:09:05;17.35;;;10.63;;
73980;SDS011;62348;51.412;5.436;2023-10-09T00:11:51;14.43;;;10.18;;
73980;SDS011;62348;51.412;5.436;2023-10-09T00:14:25;15.93;;;10.75;;
73980;SDS011;62348;51.412;5.436;2023-10-09T00:16:56;15.52;;;9.90;;
73980;SDS011;62348;51.412;5.436;2023-10-09T00:19:37;15.95;;;10.98;;
73980;SDS011;62348;51.412;5.436;2023-10-09T00:22:02;16.42;;;10.50;;
73980;SDS011;62348;51.412;5.436;2023-10-09T00:24:51;14.57;;;10.18;;
73980;SDS011;62348;51.412;5.436;2023-10-09T00:27:36;17.60;;;10.52;;
73980;SDS011;62348;51.412;5.436;2023-10-09T00:30:06;20.10;;;11.55;;
73980;SDS011;62348;51.412;5.436;2023-10-09T00:32:32;18.13;;;11.75;;
73980;SDS011;62348;51.412;5.436;2023-10-09T00:34:58;20.38;;;12.10;;
73980;SDS011;62348;51.412;5.436;2023-10-09T00:37:44;16.00;;;11.30;;
73980;SDS011;62348;51.412;5.436;2023-10-09T00:40:10;18.65;;;12.68;;
73980;SDS011;62348;51.412;5.436;2023-10-09T00:42:45;20.15;;;11.55;;
73980;SDS011;62348;51.412;5.436;2023-10-09T00:45:11;19.13;;;11.15;;
73980;SDS011;62348;51.412;5.436;2023-10-09T00:47:41;18.50;;;12.07;;
73980;SDS011;62348;51.412;5.436;2023-10-09T00:50:09;19.38;;;11.95;;
73980;SDS011;62348;51.412;5.436;2023-10-09T00:52:38;17.75;;;11.75;;
73980;SDS011;62348;51.412;5.436;2023-10-09T00:55:16;20.05;;;11.25;;
73980;SDS011;62348;51.412;5.436;2023-10-09T00:57:52;16.48;;;11.82;;
73980;SDS011;62348;51.412;5.436;2023-10-09T01:02:57;15.55;;;10.75;;
73980;SDS011;62348;51.412;5.436;2023-10-09T01:05:38;18.33;;;11.98;;
73980;SDS011;62348;51.412;5.436;2023-10-09T01:08:05;15.82;;;10.80;;
73980;SDS011;62348;51.412;5.436;2023-10-09T01:10:49;16.85;;;11.73;;
73980;SDS011;62348;51.412;5.436;2023-10-09T01:13:21;16.33;;;11.35;;
73980;SDS011;62348;51.412;5.436;2023-10-09T01:16:07;15.88;;;10.45;;
73980;SDS011;62348;51.412;5.436;2023-10-09T01:18:42;15.05;;;10.98;;
73980;SDS011;62348;51.412;5.436;2023-10-09T01:21:14;19.27;;;12.00;;
73980;SDS011;62348;51.412;5.436;2023-10-09T01:23:44;17.75;;;11.80;;
73980;SDS011;62348;51.412;5.436;2023-10-09T01:26:32;16.73;;;11.13;;
73980;SDS011;62348;51.412;5.436;2023-10-09T01:29:14;16.13;;;11.95;;
73980;SDS011;62348;51.412;5.436;2023-10-09T01:31:52;14.77;;;10.85;;
73980;SDS011;62348;51.412;5.436;2023-10-09T01:34:24;16.90;;;10.82;;
73980;SDS011;62348;51.412;5.436;2023-10-09T01:37:07;18.80;;;11.05;;
73980;SDS011;62348;51.412;5.436;2023-10-09T01:39:40;15.90;;;11.85;;
73980;SDS011;62348;51.412;5.436;2023-10-09T01:42:07;17.33;;;11.32;;
73980;SDS011;62348;51.412;5.436;2023-10-09T01:44:34;16.73;;;10.68;;
73980;SDS011;62348;51.412;5.436;2023-10-09T01:47:08;18.20;;;10.98;;
73980;SDS011;62348;51.412;5.436;2023-10-09T01:49:41;15.10;;;10.65;;
73980;SDS011;62348;51.412;5.436;2023-10-09T01:52:09;19.70;;;11.88;;
73980;SDS011;62348;51.412;5.436;2023-10-09T01:54:36;17.77;;;11.38;;
73980;SDS011;62348;51.412;5.436;2023-10-09T01:57:05;16.80;;;11.25;;
73980;SDS011;62348;51.412;5.436;2023-10-09T01:59:37;15.05;;;10.73;;
73980;SDS011;62348;51.412;5.436;2023-10-09T02:02:06;20.02;;;12.13;;
73980;SDS011;62348;51.412;5.436;2023-10-09T02:04:59;15.88;;;11.20;;
73980;SDS011;62348;51.412;5.436;2023-10-09T02:07:38;15.85;;;10.90;;
73980;SDS011;62348;51.412;5.436;2023-10-09T02:10:06;15.85;;;10.68;;
73980;SDS011;62348;51.412;5.436;2023-10-09T02:12:46;18.10;;;11.10;;
73980;SDS011;62348;51.412;5.436;2023-10-09T02:15:15;16.70;;;11.38;;
73980;SDS011;62348;51.412;5.436;2023-10-09T02:20:26;19.48;;;12.60;;
73980;SDS011;62348;51.412;5.436;2023-10-09T02:22:55;18.92;;;12.65;;
73980;SDS011;62348;51.412;5.436;2023-10-09T02:25:23;17.70;;;11.80;;
73980;SDS011;62348;51.412;5.436;2023-10-09T02:27:54;18.00;;;11.65;;
73980;SDS011;62348;51.412;5.436;2023-10-09T02:30:20;15.93;;;11.43;;
73980;SDS011;62348;51.412;5.436;2023-10-09T02:32:54;18.77;;;12.07;;
73980;SDS011;62348;51.412;5.436;2023-10-09T02:35:32;20.20;;;12.05;;
73980;SDS011;62348;51.412;5.436;2023-10-09T02:38:04;18.88;;;12.15;;
73980;SDS011;62348;51.412;5.436;2023-10-09T02:40:33;17.15;;;11.45;;
73980;SDS011;62348;51.412;5.436;2023-10-09T02:43:19;16.17;;;10.93;;
73980;SDS011;62348;51.412;5.436;2023-10-09T02:45:44;21.52;;;12.13;;
73980;SDS011;62348;51.412;5.436;2023-10-09T02:48:15;21.60;;;13.02;;
73980;SDS011;62348;51.412;5.436;2023-10-09T02:50:44;15.70;;;11.05;;
73980;SDS011;62348;51.412;5.436;2023-10-09T02:53:10;20.33;;;12.05;;
73980;SDS011;62348;51.412;5.436;2023-10-09T02:55:43;19.98;;;12.70;;
73980;SDS011;62348;51.412;5.436;2023-10-09T02:58:18;15.43;;;10.95;;
73980;SDS011;62348;51.412;5.436;2023-10-09T03:00:46;22.65;;;12.32;;
73980;SDS011;62348;51.412;5.436;2023-10-09T03:03:13;17.48;;;11.55;;
73980;SDS011;62348;51.412;5.436;2023-10-09T03:05:43;17.30;;;12.32;;
73980;SDS011;62348;51.412;5.436;2023-10-09T03:08:09;17.80;;;12.30;;
73980;SDS011;62348;51.412;5.436;2023-10-09T03:10:37;19.55;;;12.45;;
73980;SDS011;62348;51.412;5.436;2023-10-09T03:13:03;16.95;;;12.30;;
73980;SDS011;62348;51.412;5.436;2023-10-09T03:15:31;16.13;;;12.25;;
73980;SDS011;62348;51.412;5.436;2023-10-09T03:18:01;18.52;;;12.30;;
73980;SDS011;62348;51.412;5.436;2023-10-09T03:20:27;18.92;;;13.05;;
73980;SDS011;62348;51.412;5.436;2023-10-09T03:22:55;19.67;;;12.98;;
73980;SDS011;62348;51.412;5.436;2023-10-09T03:25:20;17.20;;;12.95;;
73980;SDS011;62348;51.412;5.436;2023-10-09T03:27:50;17.92;;;12.18;;
73980;SDS011;62348;51.412;5.436;2023-10-09T03:30:18;18.40;;;12.32;;
73980;SDS011;62348;51.412;5.436;2023-10-09T03:32:53;19.35;;;11.77;;
73980;SDS011;62348;51.412;5.436;2023-10-09T03:35:19;17.02;;;12.07;;
73980;SDS011;62348;51.412;5.436;2023-10-09T03:37:53;17.65;;;12.13;;
73980;SDS011;62348;51.412;5.436;2023-10-09T03:40:22;17.60;;;11.60;;
73980;SDS011;62348;51.412;5.436;2023-10-09T03:42:48;21.98;;;13.15;;
73980;SDS011;62348;51.412;5.436;2023-10-09T03:45:14;18.15;;;11.93;;
73980;SDS011;62348;51.412;5.436;2023-10-09T03:48:06;20.25;;;11.55;;
73980;SDS011;62348;51.412;5.436;2023-10-09T03:50:37;19.15;;;12.30;;
73980;SDS011;62348;51.412;5.436;2023-10-09T03:53:04;18.95;;;11.35;;
73980;SDS011;62348;51.412;5.436;2023-10-09T03:55:36;18.27;;;12.20;;
73980;SDS011;62348;51.412;5.436;2023-10-09T03:58:03;15.02;;;11.48;;
73980;SDS011;62348;51.412;5.436;2023-10-09T04:00:29;16.60;;;12.73;;
73980;SDS011;62348;51.412;5.436;2023-10-09T04:02:55;17.10;;;12.35;;
73980;SDS011;62348;51.412;5.436;2023-10-09T04:05:22;15.55;;;11.15;;
73980;SDS011;62348;51.412;5.436;2023-10-09T04:07:48;18.77;;;12.50;;
73980;SDS011;62348;51.412;5.436;2023-10-09T04:10:14;16.85;;;11.23;;
73980;SDS011;62348;51.412;5.436;2023-10-09T04:13:08;21.67;;;12.18;;
73980;SDS011;62348;51.412;5.436;2023-10-09T04:15:37;19.08;;;12.45;;
73980;SDS011;62348;51.412;5.436;2023-10-09T04:18:02;24.75;;;13.18;;
73980;SDS011;62348;51.412;5.436;2023-10-09T04:20:30;23.52;;;12.73;;
73980;SDS011;62348;51.412;5.436;2023-10-09T04:22:58;18.05;;;11.40;;
73980;SDS011;62348;51.412;5.436;2023-10-09T04:25:30;18.40;;;12.60;;
73980;SDS011;62348;51.412;5.436;2023-10-09T04:28:10;17.50;;;12.45;;
73980;SDS011;62348;51.412;5.436;2023-10-09T04:30:47;21.20;;;12.68;;
73980;SDS011;62348;51.412;5.436;2023-10-09T04:33:18;19.95;;;12.77;;
73980;SDS011;62348;51.412;5.436;2023-10-09T04:36:02;18.55;;;12.23;;
73980;SDS011;62348;51.412;5.436;2023-10-09T04:38:40;15.07;;;11.77;;
73980;SDS011;62348;51.412;5.436;2023-10-09T04:41:20;16.75;;;11.48;;
73980;SDS011;62348;51.412;5.436;2023-10-09T04:43:53;16.23;;;11.82;;
73980;SDS011;62348;51.412;5.436;2023-10-09T04:46:39;19.90;;;12.27;;
73980;SDS011;62348;51.412;5.436;2023-10-09T04:49:34;21.95;;;12.90;;
73980;SDS011;62348;51.412;5.436;2023-10-09T04:52:12;21.50;;;13.88;;
73980;SDS011;62348;51.412;5.436;2023-10-09T04:55:04;18.25;;;13.32;;
73980;SDS011;62348;51.412;5.436;2023-10-09T05:05:21;21.67;;;14.20;;
73980;SDS011;62348;51.412;5.436;2023-10-09T05:08:06;22.55;;;14.40;;
73980;SDS011;62348;51.412;5.436;2023-10-09T05:10:45;21.00;;;13.77;;
73980;SDS011;62348;51.412;5.436;2023-10-09T05:13:25;23.70;;;14.32;;
73980;SDS011;62348;51.412;5.436;2023-10-09T05:16:12;21.38;;;13.93;;
73980;SDS011;62348;51.412;5.436;2023-10-09T05:18:50;21.10;;;14.85;;
73980;SDS011;62348;51.412;5.436;2023-10-09T05:21:37;20.27;;;14.18;;
73980;SDS011;62348;51.412;5.436;2023-10-09T05:24:07;20.65;;;14.30;;
73980;SDS011;62348;51.412;5.436;2023-10-09T05:29:07;20.58;;;14.45;;
73980;SDS011;62348;51.412;5.436;2023-10-09T05:31:55;20.60;;;14.20;;
73980;SDS011;62348;51.412;5.436;2023-10-09T05:34:32;21.48;;;14.18;;
73980;SDS011;62348;51.412;5.436;2023-10-09T05:37:17;22.35;;;14.68;;
73980;SDS011;62348;51.412;5.436;2023-10-09T05:39:46;20.70;;;14.05;;
73980;SDS011;62348;51.412;5.436;2023-10-09T05:42:27;24.13;;;15.40;;
73980;SDS011;62348;51.412;5.436;2023-10-09T05:45:16;22.13;;;14.65;;
73980;SDS011;62348;51.412;5.436;2023-10-09T05:47:51;24.67;;;15.52;;
73980;SDS011;62348;51.412;5.436;2023-10-09T05:50:36;23.65;;;15.13;;
73980;SDS011;62348;51.412;5.436;2023-10-09T05:53:25;24.17;;;16.63;;
73980;SDS011;62348;51.412;5.436;2023-10-09T05:56:08;23.83;;;16.15;;
73980;SDS011;62348;51.412;5.436;2023-10-09T05:58:52;26.48;;;16.25;;
73980;SDS011;62348;51.412;5.436;2023-10-09T06:01:37;27.48;;;15.50;;
73980;SDS011;62348;51.412;5.436;2023-10-09T06:04:21;19.85;;;15.38;;
73980;SDS011;62348;51.412;5.436;2023-10-09T06:06:58;26.17;;;15.70;;
73980;SDS011;62348;51.412;5.436;2023-10-09T06:09:35;22.30;;;16.05;;
73980;SDS011;62348;51.412;5.436;2023-10-09T06:12:14;23.60;;;15.88;;
73980;SDS011;62348;51.412;5.436;2023-10-09T06:14:58;26.75;;;16.83;;
73980;SDS011;62348;51.412;5.436;2023-10-09T06:17:45;27.48;;;16.73;;
73980;SDS011;62348;51.412;5.436;2023-10-09T06:20:15;27.73;;;16.55;;
73980;SDS011;62348;51.412;5.436;2023-10-09T06:23:01;31.23;;;18.23;;
73980;SDS011;62348;51.412;5.436;2023-10-09T06:25:41;32.60;;;18.05;;
73980;SDS011;62348;51.412;5.436;2023-10-09T06:28:16;32.35;;;17.30;;
73980;SDS011;62348;51.412;5.436;2023-10-09T06:30:57;22.93;;;16.17;;
73980;SDS011;62348;51.412;5.436;2023-10-09T06:33:43;24.70;;;16.33;;
73980;SDS011;62348;51.412;5.436;2023-10-09T06:36:28;23.67;;;16.58;;
73980;SDS011;62348;51.412;5.436;2023-10-09T06:38:56;25.67;;;16.65;;
73980;SDS011;62348;51.412;5.436;2023-10-09T06:41:41;24.00;;;16.55;;
73980;SDS011;62348;51.412;5.436;2023-10-09T06:44:10;28.52;;;16.40;;
73980;SDS011;62348;51.412;5.436;2023-10-09T06:46:55;25.10;;;16.48;;
73980;SDS011;62348;51.412;5.436;2023-10-09T06:49:32;25.48;;;17.23;;
73980;SDS011;62348;51.412;5.436;2023-10-09T06:52:01;28.00;;;16.80;;
73980;SDS011;62348;51.412;5.436;2023-10-09T06:54:40;35.33;;;17.90;;
73980;SDS011;62348;51.412;5.436;2023-10-09T06:57:14;28.38;;;17.58;;
73980;SDS011;62348;51.412;5.436;2023-10-09T06:59:43;30.55;;;18.45;;
73980;SDS011;62348;51.412;5.436;2023-10-09T07:02:28;33.15;;;17.65;;
73980;SDS011;62348;51.412;5.436;2023-10-09T07:04:56;33.85;;;17.02;;
73980;SDS011;62348;51.412;5.436;2023-10-09T07:07:22;34.45;;;17.00;;
73980;SDS011;62348;51.412;5.436;2023-10-09T07:09:49;28.75;;;17.90;;
73980;SDS011;62348;51.412;5.436;2023-10-09T07:12:33;25.67;;;16.63;;
73980;SDS011;62348;51.412;5.436;2023-10-09T07:15:00;22.58;;;17.15;;
73980;SDS011;62348;51.412;5.436;2023-10-09T07:17:26;31.60;;;18.52;;
73980;SDS011;62348;51.412;5.436;2023-10-09T07:19:58;27.80;;;16.27;;
73980;SDS011;62348;51.412;5.436;2023-10-09T07:22:41;26.55;;;15.18;;
73980;SDS011;62348;51.412;5.436;2023-10-09T07:25:21;25.38;;;17.30;;
73980;SDS011;62348;51.412;5.436;2023-10-09T07:27:54;28.42;;;17.48;;
73980;SDS011;62348;51.412;5.436;2023-10-09T07:30:21;23.77;;;16.33;;
73980;SDS011;62348;51.412;5.436;2023-10-09T07:32:59;24.38;;;15.93;;
73980;SDS011;62348;51.412;5.436;2023-10-09T07:35:39;25.17;;;17.25;;
73980;SDS011;62348;51.412;5.436;2023-10-09T07:38:09;26.65;;;16.90;;
73980;SDS011;62348;51.412;5.436;2023-10-09T07:40:36;26.98;;;18.00;;
73980;SDS011;62348;51.412;5.436;2023-10-09T07:43:25;25.40;;;16.77;;
73980;SDS011;62348;51.412;5.436;2023-10-09T07:46:01;28.20;;;17.35;;
73980;SDS011;62348;51.412;5.436;2023-10-09T07:48:27;27.95;;;18.27;;
73980;SDS011;62348;51.412;5.436;2023-10-09T07:51:04;24.90;;;16.45;;
73980;SDS011;62348;51.412;5.436;2023-10-09T07:53:36;30.40;;;17.42;;
73980;SDS011;62348;51.412;5.436;2023-10-09T07:56:08;31.55;;;17.58;;
73980;SDS011;62348;51.412;5.436;2023-10-09T07:58:34;47.00;;;19.20;;
73980;SDS011;62348;51.412;5.436;2023-10-09T08:01:11;42.13;;;18.52;;
73980;SDS011;62348;51.412;5.436;2023-10-09T08:03:44;29.23;;;16.95;;
73980;SDS011;62348;51.412;5.436;2023-10-09T08:06:12;32.00;;;18.00;;
73980;SDS011;62348;51.412;5.436;2023-10-09T08:08:57;25.58;;;18.15;;
73980;SDS011;62348;51.412;5.436;2023-10-09T08:11:38;26.45;;;15.82;;
73980;SDS011;62348;51.412;5.436;2023-10-09T08:14:10;26.40;;;17.25;;
73980;SDS011;62348;51.412;5.436;2023-10-09T08:16:54;28.83;;;17.77;;
73980;SDS011;62348;51.412;5.436;2023-10-09T08:19:38;29.70;;;17.38;;
73980;SDS011;62348;51.412;5.436;2023-10-09T08:22:20;26.45;;;17.15;;
73980;SDS011;62348;51.412;5.436;2023-10-09T08:24:49;32.55;;;18.50;;
73980;SDS011;62348;51.412;5.436;2023-10-09T08:27:24;33.40;;;19.30;;
73980;SDS011;62348;51.412;5.436;2023-10-09T08:29:58;29.48;;;18.45;;
73980;SDS011;62348;51.412;5.436;2023-10-09T08:32:48;34.47;;;18.77;;
73980;SDS011;62348;51.412;5.436;2023-10-09T08:35:31;28.95;;;19.23;;
73980;SDS011;62348;51.412;5.436;2023-10-09T08:38:12;38.08;;;21.73;;
73980;SDS011;62348;51.412;5.436;2023-10-09T08:40:42;38.30;;;21.15;;
73980;SDS011;62348;51.412;5.436;2023-10-09T08:43:14;29.88;;;19.60;;
73980;SDS011;62348;51.412;5.436;2023-10-09T08:45:46;27.40;;;19.93;;
73980;SDS011;62348;51.412;5.436;2023-10-09T08:48:13;28.77;;;19.13;;
73980;SDS011;62348;51.412;5.436;2023-10-09T08:50:43;31.02;;;20.13;;
73980;SDS011;62348;51.412;5.436;2023-10-09T08:53:10;31.35;;;19.58;;
73980;SDS011;62348;51.412;5.436;2023-10-09T08:55:37;30.80;;;19.65;;
73980;SDS011;62348;51.412;5.436;2023-10-09T08:58:04;29.20;;;20.25;;
73980;SDS011;62348;51.412;5.436;2023-10-09T09:00:46;29.97;;;18.37;;
73980;SDS011;62348;51.412;5.436;2023-10-09T09:03:16;29.38;;;19.67;;
73980;SDS011;62348;51.412;5.436;2023-10-09T09:05:46;29.85;;;20.95;;
73980;SDS011;62348;51.412;5.436;2023-10-09T09:08:23;32.00;;;19.83;;
73980;SDS011;62348;51.412;5.436;2023-10-09T09:11:02;28.27;;;18.52;;
73980;SDS011;62348;51.412;5.436;2023-10-09T09:16:15;32.28;;;20.55;;
73980;SDS011;62348;51.412;5.436;2023-10-09T09:18:51;27.65;;;19.38;;
73980;SDS011;62348;51.412;5.436;2023-10-09T09:21:28;27.73;;;20.02;;
73980;SDS011;62348;51.412;5.436;2023-10-09T09:23:58;33.53;;;19.40;;
73980;SDS011;62348;51.412;5.436;2023-10-09T09:26:33;26.58;;;19.55;;
73980;SDS011;62348;51.412;5.436;2023-10-09T09:29:03;29.73;;;19.10;;
73980;SDS011;62348;51.412;5.436;2023-10-09T09:31:30;28.20;;;18.58;;
73980;SDS011;62348;51.412;5.436;2023-10-09T09:34:02;31.00;;;18.63;;
73980;SDS011;62348;51.412;5.436;2023-10-09T09:36:37;33.95;;;18.92;;
73980;SDS011;62348;51.412;5.436;2023-10-09T09:39:18;26.60;;;17.45;;
73980;SDS011;62348;51.412;5.436;2023-10-09T09:41:51;30.27;;;18.92;;
73980;SDS011;62348;51.412;5.436;2023-10-09T09:44:19;32.50;;;19.45;;
73980;SDS011;62348;51.412;5.436;2023-10-09T09:46:51;26.70;;;18.55;;
73980;SDS011;62348;51.412;5.436;2023-10-09T09:49:19;26.33;;;18.40;;
73980;SDS011;62348;51.412;5.436;2023-10-09T09:51:47;33.13;;;18.90;;
73980;SDS011;62348;51.412;5.436;2023-10-09T09:54:16;27.67;;;18.27;;
73980;SDS011;62348;51.412;5.436;2023-10-09T09:56:43;29.05;;;18.58;;
73980;SDS011;62348;51.412;5.436;2023-10-09T09:59:16;26.85;;;19.52;;
73980;SDS011;62348;51.412;5.436;2023-10-09T10:01:47;33.42;;;21.33;;
73980;SDS011;62348;51.412;5.436;2023-10-09T10:04:22;26.77;;;19.35;;
73980;SDS011;62348;51.412;5.436;2023-10-09T10:06:51;29.55;;;21.25;;
73980;SDS011;62348;51.412;5.436;2023-10-09T10:09:39;38.80;;;23.70;;
73980;SDS011;62348;51.412;5.436;2023-10-09T10:12:09;30.10;;;20.58;;
73980;SDS011;62348;51.412;5.436;2023-10-09T10:20:26;27.42;;;21.17;;
73980;SDS011;62348;51.412;5.436;2023-10-09T10:23:14;35.15;;;22.58;;
73980;SDS011;62348;51.412;5.436;2023-10-09T10:25:44;32.45;;;21.27;;
73980;SDS011;62348;51.412;5.436;2023-10-09T10:28:19;31.60;;;21.35;;
73980;SDS011;62348;51.412;5.436;2023-10-09T10:31:03;31.30;;;21.83;;
73980;SDS011;62348;51.412;5.436;2023-10-09T10:36:23;28.48;;;21.17;;
73980;SDS011;62348;51.412;5.436;2023-10-09T10:41:36;32.67;;;22.25;;
73980;SDS011;62348;51.412;5.436;2023-10-09T10:44:15;36.58;;;22.40;;
73980;SDS011;62348;51.412;5.436;2023-10-09T10:47:09;30.33;;;19.85;;
73980;SDS011;62348;51.412;5.436;2023-10-09T10:49:53;33.00;;;21.85;;
73980;SDS011;62348;51.412;5.436;2023-10-09T10:52:23;27.90;;;19.98;;
73980;SDS011;62348;51.412;5.436;2023-10-09T10:55:07;29.70;;;19.92;;
73980;SDS011;62348;51.412;5.436;2023-10-09T10:57:42;33.83;;;20.92;;
73980;SDS011;62348;51.412;5.436;2023-10-09T11:00:35;33.30;;;20.43;;
73980;SDS011;62348;51.412;5.436;2023-10-09T11:03:21;33.25;;;21.50;;
73980;SDS011;62348;51.412;5.436;2023-10-09T11:06:06;30.33;;;21.48;;
73980;SDS011;62348;51.412;5.436;2023-10-09T11:08:43;29.90;;;20.40;;
73980;SDS011;62348;51.412;5.436;2023-10-09T11:11:19;32.70;;;21.00;;
73980;SDS011;62348;51.412;5.436;2023-10-09T11:13:45;37.25;;;21.95;;
73980;SDS011;62348;51.412;5.436;2023-10-09T11:16:25;30.80;;;20.85;;
73980;SDS011;62348;51.412;5.436;2023-10-09T11:18:59;32.35;;;21.40;;
73980;SDS011;62348;51.412;5.436;2023-10-09T11:21:37;31.70;;;21.38;;
73980;SDS011;62348;51.412;5.436;2023-10-09T11:24:07;32.75;;;22.55;;
73980;SDS011;62348;51.412;5.436;2023-10-09T11:26:51;34.90;;;22.95;;
73980;SDS011;62348;51.412;5.436;2023-10-09T11:29:21;32.55;;;22.05;;
73980;SDS011;62348;51.412;5.436;2023-10-09T11:31:57;33.78;;;22.38;;
73980;SDS011;62348;51.412;5.436;2023-10-09T11:34:24;31.20;;;20.92;;
73980;SDS011;62348;51.412;5.436;2023-10-09T11:36:59;31.15;;;22.00;;
73980;SDS011;62348;51.412;5.436;2023-10-09T11:39:26;35.80;;;22.95;;
73980;SDS011;62348;51.412;5.436;2023-10-09T11:42:07;36.50;;;21.80;;
73980;SDS011;62348;51.412;5.436;2023-10-09T11:44:42;30.25;;;21.38;;
73980;SDS011;62348;51.412;5.436;2023-10-09T11:47:10;32.03;;;22.48;;
73980;SDS011;62348;51.412;5.436;2023-10-09T11:49:51;31.65;;;22.27;;
73980;SDS011;62348;51.412;5.436;2023-10-09T11:52:27;31.65;;;21.90;;
73980;SDS011;62348;51.412;5.436;2023-10-09T11:55:21;31.85;;;22.25;;
73980;SDS011;62348;51.412;5.436;2023-10-09T11:57:50;34.28;;;23.05;;
73980;SDS011;62348;51.412;5.436;2023-10-09T12:00:16;37.92;;;24.42;;
73980;SDS011;62348;51.412;5.436;2023-10-09T12:02:55;32.28;;;22.08;;
73980;SDS011;62348;51.412;5.436;2023-10-09T12:05:20;33.40;;;22.58;;
73980;SDS011;62348;51.412;5.436;2023-10-09T12:07:46;33.05;;;22.60;;
73980;SDS011;62348;51.412;5.436;2023-10-09T12:10:12;34.22;;;23.30;;
73980;SDS011;62348;51.412;5.436;2023-10-09T12:12:40;31.48;;;21.27;;
73980;SDS011;62348;51.412;5.436;2023-10-09T12:15:11;34.78;;;22.67;;
73980;SDS011;62348;51.412;5.436;2023-10-09T12:17:42;30.52;;;20.88;;
73980;SDS011;62348;51.412;5.436;2023-10-09T12:20:14;31.67;;;22.05;;
73980;SDS011;62348;51.412;5.436;2023-10-09T12:22:56;30.58;;;20.48;;
73980;SDS011;62348;51.412;5.436;2023-10-09T12:25:25;30.58;;;18.92;;
73980;SDS011;62348;51.412;5.436;2023-10-09T12:27:51;28.65;;;17.83;;
73980;SDS011;62348;51.412;5.436;2023-10-09T12:30:22;26.30;;;16.73;;
73980;SDS011;62348;51.412;5.436;2023-10-09T12:32:52;25.88;;;17.33;;
73980;SDS011;62348;51.412;5.436;2023-10-09T12:35:18;23.38;;;17.67;;
73980;SDS011;62348;51.412;5.436;2023-10-09T12:37:44;27.15;;;16.88;;
73980;SDS011;62348;51.412;5.436;2023-10-09T12:40:09;25.15;;;16.58;;
73980;SDS011;62348;51.412;5.436;2023-10-09T12:42:36;23.48;;;15.88;;
73980;SDS011;62348;51.412;5.436;2023-10-09T12:45:02;24.95;;;14.18;;
73980;SDS011;62348;51.412;5.436;2023-10-09T12:47:33;23.90;;;14.60;;
73980;SDS011;62348;51.412;5.436;2023-10-09T12:49:59;24.52;;;14.05;;
73980;SDS011;62348;51.412;5.436;2023-10-09T12:52:24;19.08;;;13.32;;
73980;SDS011;62348;51.412;5.436;2023-10-09T12:54:54;20.48;;;13.98;;
73980;SDS011;62348;51.412;5.436;2023-10-09T12:57:20;25.85;;;14.45;;
73980;SDS011;62348;51.412;5.436;2023-10-09T12:59:46;24.67;;;13.07;;
73980;SDS011;62348;51.412;5.436;2023-10-09T13:02:14;25.65;;;13.88;;
73980;SDS011;62348;51.412;5.436;2023-10-09T13:04:58;17.77;;;12.23;;
73980;SDS011;62348;51.412;5.436;2023-10-09T13:07:25;25.98;;;12.50;;
73980;SDS011;62348;51.412;5.436;2023-10-09T13:09:50;17.00;;;11.80;;
73980;SDS011;62348;51.412;5.436;2023-10-09T13:12:34;16.67;;;10.35;;
73980;SDS011;62348;51.412;5.436;2023-10-09T13:15:06;19.15;;;12.15;;
73980;SDS011;62348;51.412;5.436;2023-10-09T13:17:35;17.45;;;10.48;;
73980;SDS011;62348;51.412;5.436;2023-10-09T13:20:05;17.13;;;9.85;;
73980;SDS011;62348;51.412;5.436;2023-10-09T13:22:38;16.15;;;10.20;;
73980;SDS011;62348;51.412;5.436;2023-10-09T13:25:13;20.10;;;10.52;;
73980;SDS011;62348;51.412;5.436;2023-10-09T13:27:49;21.65;;;10.40;;
73980;SDS011;62348;51.412;5.436;2023-10-09T13:30:18;16.30;;;9.30;;
73980;SDS011;62348;51.412;5.436;2023-10-09T13:32:47;17.27;;;11.15;;
73980;SDS011;62348;51.412;5.436;2023-10-09T13:35:14;20.42;;;10.60;;
73980;SDS011;62348;51.412;5.436;2023-10-09T13:37:42;18.65;;;11.52;;
73980;SDS011;62348;51.412;5.436;2023-10-09T13:40:09;16.90;;;9.80;;
73980;SDS011;62348;51.412;5.436;2023-10-09T13:42:35;16.08;;;9.85;;
73980;SDS011;62348;51.412;5.436;2023-10-09T13:45:02;15.57;;;10.18;;
73980;SDS011;62348;51.412;5.436;2023-10-09T13:47:32;20.60;;;10.88;;
73980;SDS011;62348;51.412;5.436;2023-10-09T13:49:58;15.65;;;10.55;;
73980;SDS011;62348;51.412;5.436;2023-10-09T13:52:25;19.92;;;10.43;;
73980;SDS011;62348;51.412;5.436;2023-10-09T13:54:52;18.95;;;11.60;;
73980;SDS011;62348;51.412;5.436;2023-10-09T13:57:18;21.35;;;10.15;;
73980;SDS011;62348;51.412;5.436;2023-10-09T13:59:47;17.40;;;9.98;;
73980;SDS011;62348;51.412;5.436;2023-10-09T14:02:16;16.63;;;10.15;;
73980;SDS011;62348;51.412;5.436;2023-10-09T14:04:42;18.45;;;9.88;;
73980;SDS011;62348;51.412;5.436;2023-10-09T14:07:08;16.40;;;9.73;;
73980;SDS011;62348;51.412;5.436;2023-10-09T14:09:34;13.02;;;9.25;;
73980;SDS011;62348;51.412;5.436;2023-10-09T14:12:04;15.45;;;9.35;;
73980;SDS011;62348;51.412;5.436;2023-10-09T14:14:41;17.95;;;9.38;;
73980;SDS011;62348;51.412;5.436;2023-10-09T14:17:14;21.52;;;9.05;;
73980;SDS011;62348;51.412;5.436;2023-10-09T14:19:44;16.73;;;9.45;;
73980;SDS011;62348;51.412;5.436;2023-10-09T14:22:13;14.18;;;8.85;;
73980;SDS011;62348;51.412;5.436;2023-10-09T14:24:41;17.92;;;9.25;;
73980;SDS011;62348;51.412;5.436;2023-10-09T14:27:10;13.32;;;8.23;;
73980;SDS011;62348;51.412;5.436;2023-10-09T14:29:44;19.00;;;9.13;;
73980;SDS011;62348;51.412;5.436;2023-10-09T14:32:10;18.13;;;8.52;;
73980;SDS011;62348;51.412;5.436;2023-10-09T14:34:40;15.38;;;8.48;;
73980;SDS011;62348;51.412;5.436;2023-10-09T14:37:11;15.97;;;7.90;;
73980;SDS011;62348;51.412;5.436;2023-10-09T14:39:46;11.60;;;7.75;;
73980;SDS011;62348;51.412;5.436;2023-10-09T14:42:15;14.93;;;7.80;;
73980;SDS011;62348;51.412;5.436;2023-10-09T14:44:41;18.00;;;9.40;;
73980;SDS011;62348;51.412;5.436;2023-10-09T14:47:07;12.98;;;7.40;;
73980;SDS011;62348;51.412;5.436;2023-10-09T14:49:33;16.60;;;8.38;;
73980;SDS011;62348;51.412;5.436;2023-10-09T14:52:02;16.38;;;7.95;;
73980;SDS011;62348;51.412;5.436;2023-10-09T14:54:33;14.00;;;7.65;;
73980;SDS011;62348;51.412;5.436;2023-10-09T14:56:58;11.93;;;7.60;;
73980;SDS011;62348;51.412;5.436;2023-10-09T14:59:24;18.23;;;8.07;;
73980;SDS011;62348;51.412;5.436;2023-10-09T15:01:50;12.52;;;7.72;;
73980;SDS011;62348;51.412;5.436;2023-10-09T15:04:18;12.68;;;7.82;;
73980;SDS011;62348;51.412;5.436;2023-10-09T15:06:44;16.38;;;7.70;;
73980;SDS011;62348;51.412;5.436;2023-10-09T15:09:12;17.27;;;7.07;;
73980;SDS011;62348;51.412;5.436;2023-10-09T15:11:46;12.27;;;7.03;;
73980;SDS011;62348;51.412;5.436;2023-10-09T15:14:13;11.93;;;7.05;;
73980;SDS011;62348;51.412;5.436;2023-10-09T15:16:39;11.70;;;7.53;;
73980;SDS011;62348;51.412;5.436;2023-10-09T15:19:04;16.55;;;7.38;;
73980;SDS011;62348;51.412;5.436;2023-10-09T15:21:30;12.90;;;7.88;;
73980;SDS011;62348;51.412;5.436;2023-10-09T15:23:58;12.35;;;7.10;;
73980;SDS011;62348;51.412;5.436;2023-10-09T15:26:24;12.98;;;7.03;;
73980;SDS011;62348;51.412;5.436;2023-10-09T15:28:50;11.40;;;6.82;;